Pewamo, MI (48873)

7:24 AM EDT en Septiembre 16, 2014 (GMT -0400)
KMIWESTP2 | Change Station
CLOSE
Current Station
Estación meteorológica personal
Location: Westphalia, MI
Altura: 788 ft
Estaciones meteorológicas cercanas
Aviso en curso: Dense Fog Advisory

Alt 788 ft 42.93 °N, 84.79 °W | Updated 6 seconds ago

Niebla
Niebla
45.3 ° F
Sensación térmica 44 ° F
N
3.1
Viento Variable Viento desde Oeste
Gusts 4.5 mph

Hoy
Alta -- | Baja -- ° F
--% Posibilidad de precipitaciones
Ayer
Alta -- | Baja -- ° F
Precip. -- pul
7:20 AM 7:47 PM
Cuarto menguante, 46% visible
Presión 30.17 pul
Visibilidad 0.2 Millas
Nubes Nublado 200 ft
Vientos helados 44 ° F
Punto de rocío 45 ° F
Humedad 99%
Precipitaciones 0.00 pul
Espesor de la nieve No disponible.
UV 0 de una escala de 12
Polen 3.10 de una escala de 12
Ozono Buena
Flu Activity No disponible.
METAR KY70 161114Z AUTO 00000KT M1/4SM FG OVC002 07/07 A3017 RMK AO2 T00690068

More Conditions Fewer Conditions

Presión 30.17 pul
Visibilidad 0.2 Millas
Nubes Nublado 200 ft
Vientos helados 44 ° F
Punto de rocío 45 ° F
Humedad 99%
Precipitaciones 0.00 pul
Espesor de la nieve No disponible.
UV 0 de una escala de 12
Polen 3.10 de una escala de 12
Ozono Buena
Flu Activity No disponible.
METAR KY70 161114Z AUTO 00000KT M1/4SM FG OVC002 07/07 A3017 RMK AO2 T00690068

More Conditions Fewer Conditions

10-Day Weather Forecast

Almanac

Astronomía

Sep. 16, 2014 Salida Puesta
Hora real 7:20 AM EDT 7:47 PM EDT
Crepúsculo civil 6:51 AM EDT 8:15 PM EDT
Crepúsculo náutico 6:18 AM EDT 8:49 PM EDT
Crepúsculo astronómico 5:43 AM EDT 9:23 PM EDT
Luna 12:22 AM EDT 3:17 PM EDT
Horas de luz 13h 24m
Horas de luz
12h 27m
Tomorrow will be 2m 55s shorter.
Cuarto menguante, 46% of the Moon is Illuminated
Hoy
Cuarto menguante
Sep 24
Nueva
Oct 1
Cuarto creciente
Oct 8
Luna llena
Oct 15
Cuarto menguante

Extremos de hoy

Máximos del estado Bajos del estado

Community

WunderPhotos

Upload Photos

1,753,724 ¡fotos cargadas!

WunderBlogs® & News

By Dr. Jeff Masters
Director of Meteorology, Weather Underground
By Kari Strenfel
Meteorologist, Weather Underground
By Christopher C. Burt
Weather Historian, Weather Underground
September 16, 2014
September 16, 2014
September 16, 2014

Nearby

Calidad del aire

  Calidad del aire Índice AQ Contaminante
Ayer Buena
OZONE
Real Buena
OZONE
Martes Buena
OZONE
Martes Buena
PM2.5
Miércoles Buena
OZONE
Miércoles Buena
PM2.5
Jueves Buena
OZONE
Jueves Buena
PM2.5
Viernes Buena
OZONE
Viernes Buena
PM2.5
Sábado Buena
OZONE
Sábado Buena
PM2.5

Grosos de nieve

Estación Profundido Altura
No tenemos constancia de nieve nueva.

Actividad de terremotos

Ciudad Distance Mag. Tiempo y dato
No hay informes recientes de la actividad sísmica.
Magnitud mínima muestra es 2,5.

Temperaturas de aguas costeras

Lugar Temperatura
Sin partes meteorológicos de las estaciones

Estaciones meteorológicas cercanas